createdAt,value
2018-07-26T00:02:30.298Z,4.37
2018-07-26T00:05:00.822Z,4.73
2018-07-26T00:07:31.640Z,5.10
2018-07-26T00:10:03.321Z,4.40
2018-07-26T00:12:33.616Z,4.30
2018-07-26T00:15:05.731Z,4.57
2018-07-26T00:17:36.852Z,4.40
2018-07-26T00:20:08.785Z,5.20
2018-07-26T00:22:40.842Z,4.53
2018-07-26T00:25:12.064Z,4.63
2018-07-26T00:27:44.052Z,6.40
2018-07-26T00:30:14.824Z,5.63
2018-07-26T00:32:46.396Z,4.70
2018-07-26T00:35:17.506Z,4.83
2018-07-26T00:37:48.381Z,4.73
2018-07-26T00:40:20.401Z,3.80
2018-07-26T00:42:51.630Z,4.37
2018-07-26T00:45:22.720Z,4.53
2018-07-26T00:47:53.213Z,5.30
2018-07-26T00:50:24.517Z,5.40
2018-07-26T00:52:54.907Z,4.70
2018-07-26T00:55:25.717Z,5.27
2018-07-26T00:57:56.067Z,4.50
2018-07-26T01:00:27.592Z,4.70
2018-07-26T01:02:58.347Z,4.77
2018-07-26T01:05:30.222Z,5.10
2018-07-26T01:08:00.901Z,5.00
2018-07-26T01:10:32.114Z,4.73
2018-07-26T01:13:03.126Z,4.77
2018-07-26T01:15:34.163Z,4.60
2018-07-26T01:18:04.850Z,4.63
2018-07-26T01:20:35.644Z,4.43
2018-07-26T01:23:06.091Z,4.43
2018-07-26T01:25:37.380Z,3.93
2018-07-26T01:28:08.117Z,4.70
2018-07-26T01:30:39.471Z,4.27
2018-07-26T01:33:09.568Z,5.97
2018-07-26T01:35:40.425Z,4.60
2018-07-26T01:38:11.377Z,4.83
2018-07-26T01:40:42.327Z,4.90
2018-07-26T01:43:56.866Z,5.07
2018-07-26T01:46:27.639Z,4.40
2018-07-26T01:48:58.615Z,4.77
2018-07-26T01:51:30.421Z,5.07
2018-07-26T01:54:01.522Z,5.00
2018-07-26T01:56:32.323Z,4.23
2018-07-26T01:59:02.863Z,5.20
2018-07-26T02:01:34.071Z,5.63
2018-07-26T02:04:05.119Z,5.83
2018-07-26T02:06:36.111Z,4.70
2018-07-26T02:09:09.604Z,4.70
2018-07-26T02:11:40.453Z,5.20
2018-07-26T02:14:16.158Z,4.77
2018-07-26T02:16:46.771Z,5.00
2018-07-26T02:19:17.243Z,5.20
2018-07-26T02:21:48.268Z,5.27
2018-07-26T02:24:18.999Z,4.40
2018-07-26T02:26:49.692Z,4.93
2018-07-26T02:29:20.525Z,5.23
2018-07-26T02:31:52.226Z,4.80
2018-07-26T02:34:21.827Z,5.40
2018-07-26T02:36:52.835Z,5.17
2018-07-26T02:39:24.173Z,4.43
2018-07-26T02:41:55.500Z,5.33
2018-07-26T02:44:27.054Z,4.83
2018-07-26T02:46:57.529Z,5.43
2018-07-26T02:49:28.675Z,5.23
2018-07-26T02:51:59.789Z,5.20
2018-07-26T02:54:31.044Z,5.47
2018-07-26T02:57:02.027Z,4.70
2018-07-26T02:59:33.342Z,6.23
2018-07-26T03:02:04.531Z,5.13
2018-07-26T03:04:36.399Z,5.43
2018-07-26T03:07:07.592Z,4.90
2018-07-26T03:09:38.568Z,5.07
2018-07-26T03:12:10.189Z,5.50
2018-07-26T03:14:43.453Z,4.80
2018-07-26T03:17:16.159Z,6.07
2018-07-26T03:19:48.283Z,5.47
2018-07-26T03:22:18.981Z,5.23
2018-07-26T03:24:49.719Z,5.07
2018-07-26T03:27:21.375Z,5.13
2018-07-26T03:29:52.438Z,5.37
2018-07-26T03:32:23.702Z,5.40
2018-07-26T03:34:55.333Z,4.90
2018-07-26T03:37:26.563Z,5.30
2018-07-26T03:39:58.031Z,4.87
2018-07-26T03:42:29.582Z,4.80
2018-07-26T03:45:01.006Z,5.60
2018-07-26T03:47:32.038Z,5.17
2018-07-26T03:50:03.154Z,5.17
2018-07-26T03:52:34.471Z,5.20
2018-07-26T03:55:06.436Z,5.57
2018-07-26T03:57:37.525Z,5.23
2018-07-26T04:00:08.477Z,5.40
2018-07-26T04:02:39.609Z,5.60
2018-07-26T04:05:10.946Z,5.73
2018-07-26T04:07:40.830Z,5.10
2018-07-26T04:10:12.333Z,6.00
2018-07-26T04:12:43.550Z,4.67
2018-07-26T04:15:15.190Z,5.30
2018-07-26T04:17:51.224Z,4.47
2018-07-26T04:20:22.782Z,4.73
2018-07-26T04:22:55.189Z,5.67
2018-07-26T04:25:26.561Z,8.00
2018-07-26T04:27:57.640Z,10.70
2018-07-26T04:30:29.262Z,13.07
2018-07-26T04:32:59.803Z,9.97
2018-07-26T04:35:31.157Z,7.90
2018-07-26T04:38:02.622Z,6.70
2018-07-26T04:40:34.538Z,5.97
2018-07-26T04:43:05.699Z,5.53
2018-07-26T04:45:37.318Z,5.23
2018-07-26T04:48:08.251Z,6.70
2018-07-26T04:50:39.025Z,5.40
2018-07-26T04:53:09.506Z,5.50
2018-07-26T04:55:41.486Z,5.97
2018-07-26T04:58:12.805Z,5.50
2018-07-26T05:00:44.502Z,4.77
2018-07-26T05:03:15.198Z,5.97
2018-07-26T05:05:46.525Z,5.93
2018-07-26T05:08:17.375Z,5.47
2018-07-26T05:10:47.749Z,5.73
2018-07-26T05:13:18.570Z,5.20
2018-07-26T05:15:50.054Z,6.67
2018-07-26T05:18:21.735Z,6.30
2018-07-26T05:20:52.977Z,6.50
2018-07-26T05:23:23.620Z,7.33
2018-07-26T05:25:57.323Z,6.50
2018-07-26T05:28:28.505Z,5.63
2018-07-26T05:30:59.504Z,5.50
2018-07-26T05:33:31.914Z,6.17
2018-07-26T05:36:03.441Z,6.30
2018-07-26T05:38:34.129Z,5.20
2018-07-26T05:41:05.377Z,6.30
2018-07-26T05:43:36.462Z,5.30
2018-07-26T05:46:08.419Z,5.23
2018-07-26T05:48:39.722Z,5.53
2018-07-26T05:51:11.110Z,5.03
2018-07-26T05:53:42.096Z,5.50
2018-07-26T05:56:12.971Z,5.30
2018-07-26T05:58:42.647Z,5.93
2018-07-26T06:01:13.460Z,6.17
2018-07-26T06:03:44.166Z,5.33
2018-07-26T06:06:15.352Z,4.50
2018-07-26T06:08:46.061Z,4.80
2018-07-26T06:11:16.712Z,4.60
2018-07-26T06:13:47.692Z,4.57
2018-07-26T06:16:18.706Z,5.10
2018-07-26T06:18:49.110Z,5.30
2018-07-26T06:21:20.475Z,5.00
2018-07-26T06:23:50.909Z,5.23
2018-07-26T06:26:21.945Z,5.90
2018-07-26T06:28:52.855Z,5.37
2018-07-26T06:31:23.489Z,5.33
2018-07-26T06:33:54.253Z,5.07
2018-07-26T06:36:25.454Z,5.20
2018-07-26T06:38:56.527Z,5.17
2018-07-26T06:41:27.912Z,5.17
2018-07-26T06:43:58.052Z,5.70
2018-07-26T06:46:28.769Z,5.43
2018-07-26T06:48:59.884Z,5.00
2018-07-26T06:51:31.428Z,4.33
2018-07-26T06:54:02.723Z,4.37
2018-07-26T06:56:33.924Z,4.10
2018-07-26T06:59:05.773Z,4.03
2018-07-26T07:01:37.452Z,4.30
2018-07-26T07:04:08.511Z,4.50
2018-07-26T07:06:38.781Z,4.00
2018-07-26T07:09:12.253Z,4.30
2018-07-26T07:11:43.521Z,4.60
2018-07-26T07:14:14.801Z,4.27
2018-07-26T07:16:45.936Z,4.63
2018-07-26T07:19:17.332Z,4.50
2018-07-26T07:21:48.324Z,4.77
2018-07-26T07:24:22.572Z,3.70
2018-07-26T07:26:55.165Z,4.70
2018-07-26T07:29:26.948Z,4.73
2018-07-26T07:31:57.703Z,4.60
2018-07-26T07:34:29.085Z,4.80
2018-07-26T07:37:00.167Z,5.20
2018-07-26T07:39:30.586Z,4.83
2018-07-26T07:42:01.804Z,4.90
2018-07-26T07:44:32.075Z,4.17
2018-07-26T07:47:02.856Z,4.60
2018-07-26T07:49:33.151Z,4.37
2018-07-26T07:52:04.552Z,4.90
2018-07-26T07:54:36.295Z,4.87
2018-07-26T07:57:07.503Z,4.77
2018-07-26T07:59:39.031Z,4.70
2018-07-26T08:02:09.595Z,4.00
2018-07-26T08:04:40.633Z,4.87
2018-07-26T08:07:11.364Z,4.70
2018-07-26T08:09:41.770Z,4.27
2018-07-26T08:12:12.582Z,4.53
2018-07-26T08:14:43.308Z,5.77
2018-07-26T08:17:14.381Z,4.30
2018-07-26T08:19:46.275Z,5.33
2018-07-26T08:22:16.923Z,4.83
2018-07-26T08:24:47.681Z,3.80
2018-07-26T08:27:19.367Z,4.90
2018-07-26T08:29:50.226Z,5.20
2018-07-26T08:32:20.900Z,4.27
2018-07-26T08:34:52.789Z,4.30
2018-07-26T08:37:24.620Z,4.73
2018-07-26T08:39:55.301Z,4.50
2018-07-26T08:42:26.177Z,4.37
2018-07-26T08:44:57.474Z,3.43
2018-07-26T08:47:28.547Z,4.20
2018-07-26T08:50:01.156Z,4.80
2018-07-26T08:52:31.916Z,3.90
2018-07-26T08:55:03.495Z,4.40
2018-07-26T08:57:33.662Z,4.23
2018-07-26T09:00:04.910Z,4.37
2018-07-26T09:02:35.089Z,4.47
2018-07-26T09:05:06.198Z,4.60
2018-07-26T09:07:36.913Z,6.33
2018-07-26T09:10:08.350Z,4.40
2018-07-26T09:12:39.596Z,4.47
2018-07-26T09:15:10.885Z,3.83
2018-07-26T09:17:41.843Z,4.03
2018-07-26T09:20:12.169Z,4.83
2018-07-26T09:22:42.689Z,4.03
2018-07-26T09:25:14.215Z,4.63
2018-07-26T09:27:44.823Z,3.70
2018-07-26T09:30:16.440Z,3.60
2018-07-26T09:32:47.617Z,4.37
2018-07-26T09:35:19.318Z,4.90
2018-07-26T09:37:50.003Z,4.10
2018-07-26T09:40:21.227Z,4.20
2018-07-26T09:42:52.102Z,4.50
2018-07-26T09:45:23.809Z,4.20
2018-07-26T09:47:53.868Z,3.63
2018-07-26T09:50:24.690Z,3.70
2018-07-26T09:52:55.745Z,3.98
2018-07-26T09:55:26.493Z,3.50
2018-07-26T09:57:56.590Z,3.37
2018-07-26T10:00:31.848Z,3.70
2018-07-26T10:03:02.074Z,3.87
2018-07-26T10:05:33.412Z,3.55
2018-07-26T10:08:06.596Z,3.30
2018-07-26T10:10:37.311Z,3.40
2018-07-26T10:13:08.155Z,3.00
2018-07-26T10:15:39.846Z,3.37
2018-07-26T10:18:09.759Z,2.77
2018-07-26T10:20:40.151Z,3.37
2018-07-26T10:23:10.410Z,3.47
2018-07-26T10:25:42.241Z,3.10
2018-07-26T10:28:12.689Z,3.93
2018-07-26T10:30:43.661Z,3.10
2018-07-26T10:33:14.988Z,4.23
2018-07-26T10:35:47.144Z,3.63
2018-07-26T10:38:18.086Z,3.90
2018-07-26T10:40:49.012Z,3.37
2018-07-26T10:43:18.231Z,3.90
2018-07-26T10:45:48.811Z,4.17
2018-07-26T10:48:19.342Z,3.73
2018-07-26T10:50:51.244Z,3.67
2018-07-26T10:53:21.599Z,3.90
2018-07-26T10:55:52.706Z,4.70
2018-07-26T10:58:24.129Z,3.70
2018-07-26T11:00:55.475Z,3.63
2018-07-26T11:03:25.951Z,3.63
2018-07-26T11:05:56.108Z,3.63
2018-07-26T11:08:26.863Z,3.90
2018-07-26T11:10:57.410Z,3.40
2018-07-26T11:13:28.432Z,3.70
2018-07-26T11:15:59.780Z,4.13
2018-07-26T11:18:30.370Z,3.50
2018-07-26T11:21:00.976Z,3.20
2018-07-26T11:23:32.273Z,3.27
2018-07-26T11:26:03.328Z,4.00
2018-07-26T11:28:34.688Z,3.90
2018-07-26T11:31:05.791Z,3.23
2018-07-26T11:33:36.794Z,3.00
2018-07-26T11:36:07.515Z,3.40
2018-07-26T11:38:38.298Z,3.30
2018-07-26T11:41:10.653Z,2.97
2018-07-26T11:43:41.807Z,3.10
2018-07-26T11:46:13.948Z,3.03
2018-07-26T11:48:45.872Z,3.00
2018-07-26T11:51:17.810Z,3.00
2018-07-26T11:53:48.640Z,3.10
2018-07-26T11:56:19.614Z,2.70
2018-07-26T11:58:50.565Z,3.03
2018-07-26T12:01:21.080Z,2.93
2018-07-26T12:03:51.987Z,3.17
2018-07-26T12:06:22.728Z,2.30
2018-07-26T12:08:53.211Z,2.80
2018-07-26T12:11:23.817Z,3.17
2018-07-26T12:13:53.816Z,2.57
2018-07-26T12:16:23.979Z,2.60
2018-07-26T12:18:54.361Z,2.80
2018-07-26T12:21:25.203Z,2.83
2018-07-26T12:23:55.865Z,2.80
2018-07-26T12:26:26.079Z,2.90
2018-07-26T12:28:57.373Z,3.13
2018-07-26T12:31:28.487Z,2.80
2018-07-26T12:33:58.253Z,3.00
2018-07-26T12:36:29.633Z,2.90
2018-07-26T12:39:00.618Z,3.00
2018-07-26T12:41:30.649Z,3.20
2018-07-26T12:44:01.092Z,2.47
2018-07-26T12:46:32.270Z,2.83
2018-07-26T12:49:02.689Z,2.37
2018-07-26T12:51:33.538Z,2.83
2018-07-26T12:54:04.523Z,3.17
2018-07-26T12:56:35.653Z,2.77
2018-07-26T12:59:06.200Z,2.53
2018-07-26T13:01:36.996Z,2.50
2018-07-26T13:04:07.395Z,2.50
2018-07-26T13:06:39.574Z,2.50
2018-07-26T13:09:11.656Z,2.10
2018-07-26T13:11:42.317Z,2.30
2018-07-26T13:14:13.339Z,2.43
2018-07-26T13:16:44.693Z,2.47
2018-07-26T13:19:15.210Z,2.73
2018-07-26T13:21:45.918Z,2.07
2018-07-26T13:24:16.555Z,2.40
2018-07-26T13:26:48.447Z,2.73
2018-07-26T13:29:19.540Z,3.13
2018-07-26T13:31:49.835Z,2.70
2018-07-26T13:34:20.204Z,2.60
2018-07-26T13:36:51.114Z,2.70
2018-07-26T13:39:20.674Z,3.20
2018-07-26T13:41:51.618Z,3.10
2018-07-26T13:44:21.718Z,3.10
2018-07-26T13:46:52.671Z,3.00
2018-07-26T13:49:23.151Z,3.13
2018-07-26T13:51:53.963Z,2.97
2018-07-26T13:54:23.744Z,3.00
2018-07-26T13:56:54.170Z,3.20
2018-07-26T13:59:25.120Z,3.40
2018-07-26T14:01:55.545Z,3.07
2018-07-26T14:04:26.233Z,3.40
2018-07-26T14:06:57.940Z,3.13
2018-07-26T14:09:28.620Z,2.53
2018-07-26T14:11:59.500Z,3.10
2018-07-26T14:14:30.344Z,2.97
2018-07-26T14:17:02.074Z,2.40
2018-07-26T14:19:33.341Z,2.80
2018-07-26T14:22:04.813Z,2.40
2018-07-26T14:24:35.346Z,2.87
2018-07-26T14:27:06.745Z,2.90
2018-07-26T14:29:37.607Z,2.80
2018-07-26T14:32:08.488Z,2.73
2018-07-26T14:34:38.867Z,3.10
2018-07-26T14:37:09.795Z,2.30
2018-07-26T14:39:40.942Z,2.37
2018-07-26T14:42:12.570Z,2.70
2018-07-26T14:44:42.483Z,2.00
2018-07-26T14:47:12.930Z,2.27
2018-07-26T14:49:43.680Z,2.80
2018-07-26T14:52:15.718Z,2.17
2018-07-26T14:54:46.523Z,2.00
2018-07-26T14:57:17.351Z,1.90
2018-07-26T14:59:47.023Z,2.17
2018-07-26T15:02:17.408Z,2.67
2018-07-26T15:04:47.809Z,2.50
2018-07-26T15:07:19.068Z,1.63
2018-07-26T15:09:49.939Z,2.13
2018-07-26T15:12:20.862Z,2.03
2018-07-26T15:14:50.935Z,1.90
2018-07-26T15:17:22.456Z,2.00
2018-07-26T15:19:53.283Z,2.60
2018-07-26T15:22:25.000Z,2.20
2018-07-26T15:24:57.134Z,2.20
2018-07-26T15:27:28.401Z,3.10
2018-07-26T15:29:58.735Z,2.83
2018-07-26T15:32:30.060Z,2.20
2018-07-26T15:35:01.062Z,2.13
2018-07-26T15:37:32.197Z,2.40
2018-07-26T15:40:03.566Z,2.10
2018-07-26T15:42:34.549Z,2.40
2018-07-26T15:45:05.596Z,2.40
2018-07-26T15:47:38.085Z,2.53
2018-07-26T15:50:09.778Z,2.80
2018-07-26T15:52:39.788Z,2.30
2018-07-26T15:55:11.414Z,2.30
2018-07-26T15:57:42.238Z,2.23
2018-07-26T16:00:13.827Z,2.60
2018-07-26T16:02:45.047Z,2.83
2018-07-26T16:05:15.915Z,2.40
2018-07-26T16:07:46.513Z,2.67
2018-07-26T16:10:24.180Z,2.70
2018-07-26T16:12:54.961Z,2.87
2018-07-26T16:15:25.858Z,2.53
2018-07-26T16:17:56.972Z,1.87
2018-07-26T16:20:27.286Z,2.30
2018-07-26T16:22:58.746Z,2.23
2018-07-26T16:25:28.749Z,1.90
2018-07-26T16:27:59.290Z,2.73
2018-07-26T16:30:29.846Z,2.30
2018-07-26T16:33:00.247Z,2.50
2018-07-26T16:35:31.244Z,2.10
2018-07-26T16:38:02.454Z,1.87
2018-07-26T16:40:33.630Z,2.30
2018-07-26T16:43:05.146Z,2.70
2018-07-26T16:45:35.474Z,2.37
2018-07-26T16:48:06.653Z,2.40
2018-07-26T16:50:37.218Z,2.73
2018-07-26T16:53:08.754Z,2.67
2018-07-26T16:55:40.025Z,2.50
2018-07-26T16:58:11.921Z,2.40
2018-07-26T17:00:42.870Z,2.80
2018-07-26T17:03:14.240Z,2.90
2018-07-26T17:05:45.727Z,2.40
2018-07-26T17:08:17.035Z,2.50
2018-07-26T17:10:48.158Z,2.20
2018-07-26T17:13:20.018Z,2.60
2018-07-26T17:15:51.006Z,2.07
2018-07-26T17:18:22.583Z,2.20
2018-07-26T17:20:52.603Z,2.77
2018-07-26T17:23:23.797Z,3.40
2018-07-26T17:25:54.747Z,2.90
2018-07-26T17:28:25.235Z,3.00
2018-07-26T17:30:56.295Z,3.60
2018-07-26T17:33:27.005Z,2.80
2018-07-26T17:35:57.300Z,3.60
2018-07-26T17:38:28.026Z,3.00
2018-07-26T17:40:59.114Z,3.30
2018-07-26T17:43:29.921Z,3.20
2018-07-26T17:46:00.134Z,3.00
2018-07-26T17:48:31.506Z,3.33
2018-07-26T17:51:03.040Z,3.60
2018-07-26T17:53:33.779Z,3.20
2018-07-26T17:56:04.253Z,2.93
2018-07-26T17:58:34.576Z,3.90
2018-07-26T18:01:04.610Z,3.30
2018-07-26T18:03:35.733Z,3.50
2018-07-26T18:06:06.173Z,2.90
2018-07-26T18:08:37.156Z,3.23
2018-07-26T18:11:07.728Z,3.20
2018-07-26T18:13:38.919Z,3.63
2018-07-26T18:16:10.367Z,3.60
2018-07-26T18:18:41.242Z,3.53
2018-07-26T18:21:13.191Z,4.00
2018-07-26T18:23:43.591Z,3.30
2018-07-26T18:26:14.794Z,3.47
2018-07-26T18:28:46.235Z,3.00
2018-07-26T18:31:16.416Z,3.60
2018-07-26T18:33:47.695Z,3.37
2018-07-26T18:36:18.500Z,3.40
2018-07-26T18:38:49.467Z,3.20
2018-07-26T18:41:20.679Z,4.27
2018-07-26T18:43:51.413Z,4.30
2018-07-26T18:46:22.721Z,4.03
2018-07-26T18:48:53.071Z,3.70
2018-07-26T18:51:24.214Z,3.87
2018-07-26T18:53:55.190Z,3.37
2018-07-26T18:56:25.981Z,3.57
2018-07-26T18:58:56.153Z,3.60
2018-07-26T19:01:27.853Z,3.60
2018-07-26T19:03:59.060Z,3.50
2018-07-26T19:06:29.338Z,3.50
2018-07-26T19:08:59.390Z,3.53
2018-07-26T19:11:32.052Z,4.10
2018-07-26T19:14:01.899Z,3.60
2018-07-26T19:16:32.962Z,3.83
2018-07-26T19:19:03.794Z,4.00
2018-07-26T19:21:35.597Z,4.37
2018-07-26T19:24:06.473Z,5.97
2018-07-26T19:26:36.576Z,4.40
2018-07-26T19:29:07.447Z,3.80
2018-07-26T19:31:39.022Z,4.07
2018-07-26T19:34:10.663Z,4.40
2018-07-26T19:36:41.288Z,4.60
2018-07-26T19:39:14.035Z,3.40
2018-07-26T19:41:45.442Z,3.53
2018-07-26T19:44:16.385Z,4.60
2018-07-26T19:46:47.227Z,4.40
2018-07-26T19:49:17.454Z,4.40
2018-07-26T19:51:48.550Z,5.10
2018-07-26T19:54:19.239Z,4.60
2018-07-26T19:56:49.786Z,4.90
2018-07-26T19:59:21.287Z,4.50
2018-07-26T20:01:52.466Z,4.93
2018-07-26T20:04:23.803Z,4.40
2018-07-26T20:06:55.393Z,3.73
2018-07-26T20:09:27.326Z,5.10
2018-07-26T20:11:58.654Z,4.47
2018-07-26T20:14:30.069Z,4.23
2018-07-26T20:17:01.283Z,4.20
2018-07-26T20:19:32.317Z,4.13
2018-07-26T20:22:04.154Z,3.97
2018-07-26T20:24:34.928Z,5.00
2018-07-26T20:27:09.337Z,4.80
2018-07-26T20:29:41.006Z,5.00
2018-07-26T20:32:12.384Z,4.97
2018-07-26T20:34:43.708Z,4.80
2018-07-26T20:37:15.725Z,4.00
2018-07-26T20:39:47.386Z,5.17
2018-07-26T20:42:19.135Z,4.67
2018-07-26T20:44:51.023Z,4.17
2018-07-26T20:47:22.102Z,4.80
2018-07-26T20:49:52.871Z,4.87
2018-07-26T20:52:24.281Z,4.27
2018-07-26T20:54:55.722Z,4.30
2018-07-26T20:57:27.216Z,4.30
2018-07-26T20:59:57.788Z,3.80
2018-07-26T21:02:29.054Z,4.00
2018-07-26T21:05:00.005Z,4.63
2018-07-26T21:07:31.916Z,4.00
2018-07-26T21:10:03.539Z,4.50
2018-07-26T21:12:34.786Z,3.03
2018-07-26T21:15:06.133Z,4.20
2018-07-26T21:17:36.973Z,4.20
2018-07-26T21:20:08.326Z,4.37
2018-07-26T21:22:39.736Z,4.60
2018-07-26T21:25:10.447Z,4.03
2018-07-26T21:27:41.685Z,4.50
2018-07-26T21:30:13.095Z,3.87
2018-07-26T21:32:45.192Z,3.70
2018-07-26T21:35:15.736Z,4.80
2018-07-26T21:37:47.063Z,4.53
2018-07-26T21:40:18.137Z,5.00
2018-07-26T21:42:48.741Z,4.37
2018-07-26T21:45:20.373Z,4.10
2018-07-26T21:47:51.933Z,4.10
2018-07-26T21:50:23.543Z,4.47
2018-07-26T21:52:55.328Z,4.80
2018-07-26T21:55:26.572Z,5.17
2018-07-26T21:57:57.865Z,4.37
2018-07-26T22:00:36.952Z,4.30
2018-07-26T22:03:09.202Z,4.03
2018-07-26T22:05:39.882Z,4.40
2018-07-26T22:08:10.999Z,4.07
2018-07-26T22:10:42.111Z,4.43
2018-07-26T22:13:13.487Z,4.17
2018-07-26T22:15:44.113Z,4.00
2018-07-26T22:18:16.292Z,4.30
2018-07-26T22:20:47.322Z,4.37
2018-07-26T22:23:20.144Z,3.70
2018-07-26T22:25:51.220Z,3.93
2018-07-26T22:28:22.751Z,4.80
2018-07-26T22:30:55.953Z,4.97
2018-07-26T22:33:26.893Z,4.40
2018-07-26T22:35:58.197Z,4.50
2018-07-26T22:38:29.453Z,4.10
2018-07-26T22:41:00.262Z,4.20
2018-07-26T22:43:30.745Z,4.30
2018-07-26T22:46:01.326Z,4.07
2018-07-26T22:48:33.456Z,4.07
2018-07-26T22:51:04.690Z,3.60
2018-07-26T22:53:35.715Z,4.37
2018-07-26T22:56:07.080Z,3.90
2018-07-26T22:58:39.046Z,4.00
2018-07-26T23:01:11.538Z,4.77
2018-07-26T23:03:42.901Z,3.80
2018-07-26T23:06:14.017Z,4.30
2018-07-26T23:08:45.062Z,4.30
2018-07-26T23:11:16.997Z,3.47
2018-07-26T23:13:48.381Z,3.77
2018-07-26T23:16:19.300Z,4.50
2018-07-26T23:18:50.749Z,4.87
2018-07-26T23:21:22.297Z,3.97
2018-07-26T23:23:54.513Z,4.23
2018-07-26T23:26:25.423Z,3.90
2018-07-26T23:28:56.934Z,3.90
2018-07-26T23:31:28.944Z,4.43
2018-07-26T23:34:00.375Z,4.37
2018-07-26T23:36:31.106Z,4.03
2018-07-26T23:39:03.200Z,4.70
2018-07-26T23:41:34.569Z,4.07
2018-07-26T23:44:05.505Z,3.80
2018-07-26T23:46:37.404Z,4.13
2018-07-26T23:49:08.810Z,4.40
2018-07-26T23:51:39.836Z,4.03
2018-07-26T23:54:11.027Z,3.60
2018-07-26T23:56:42.506Z,3.73
2018-07-26T23:59:14.499Z,4.27
